Time;durP1;ratioP1;P1;durP2;ratioP2;P2;SDS_P1;SDS_P2;PMS_P1;PMS_P2;Temp;Humidity;BMP_temperature;BMP_pressure;BME280_temperature;BME280_humidity;BME280_pressure;Samples;Min_cycle;Max_cycle;Signal;HPM_P1;HPM_P2
2024/03/14 00:03:28;;;;;;;1999.90;999.90;;;;;;;10.12;100.00;101374.84;10580169;28;20488;-75
2024/03/14 00:08:31;;;;;;;1999.90;999.90;;;;;;;10.08;100.00;101373.28;10580752;28;20052;-75
2024/03/14 00:13:33;;;;;;;1999.90;999.90;;;;;;;9.92;100.00;101380.13;10580446;28;20130;-75
2024/03/14 00:18:36;;;;;;;1999.90;999.90;;;;;;;9.70;100.00;101385.47;10580630;28;20075;-75
2024/03/14 00:23:39;;;;;;;1999.90;999.90;;;;;;;9.86;100.00;101374.25;10580313;28;20484;-75
2024/03/14 00:28:41;;;;;;;1999.90;999.90;;;;;;;9.89;100.00;101380.28;10562990;28;20051;-75
2024/03/14 00:33:44;;;;;;;1999.90;999.90;;;;;;;9.81;100.00;101368.38;10562683;28;20429;-75
2024/03/14 00:38:47;;;;;;;1999.90;999.90;;;;;;;9.85;100.00;101369.09;10579834;28;20056;-75
2024/03/14 00:43:49;;;;;;;1999.90;999.90;;;;;;;9.73;100.00;101360.03;10579596;28;20461;-75
2024/03/14 00:48:52;;;;;;;1999.90;999.90;;;;;;;9.71;100.00;101353.19;10580603;28;20109;-75
2024/03/14 00:53:55;;;;;;;1999.90;999.90;;;;;;;9.68;100.00;101356.78;10579421;28;20067;-75
2024/03/14 00:58:58;;;;;;;1999.90;999.90;;;;;;;9.99;100.00;101348.41;10579446;28;20054;-75
2024/03/14 01:04:01;;;;;;;1999.90;999.90;;;;;;;10.02;100.00;101348.25;10562640;28;20071;-75
2024/03/14 01:09:03;;;;;;;1999.90;999.90;;;;;;;9.66;100.00;101345.53;10579354;28;20067;-75
2024/03/14 01:14:06;;;;;;;1999.90;999.90;;;;;;;9.71;100.00;101340.13;10581673;28;20058;-75
2024/03/14 01:19:09;;;;;;;1999.90;999.90;;;;;;;9.65;100.00;101344.69;10587633;28;20062;-75
2024/03/14 01:24:11;;;;;;;1999.90;999.90;;;;;;;9.80;100.00;101345.78;10546859;28;20094;-75
2024/03/14 01:29:13;;;;;;;1999.90;999.90;;;;;;;9.85;100.00;101348.16;10570031;28;20048;-75
2024/03/14 01:34:16;;;;;;;1999.90;999.90;;;;;;;9.80;100.00;101342.28;10557481;28;20523;-75
2024/03/14 01:39:20;;;;;;;1999.90;999.90;;;;;;;9.57;100.00;101336.34;10572213;28;20059;-75
2024/03/14 01:44:23;;;;;;;1999.90;999.90;;;;;;;9.45;100.00;101329.91;10586699;28;20052;-75
2024/03/14 01:49:26;;;;;;;1999.90;999.90;;;;;;;9.75;100.00;101331.19;10586417;28;20043;-75
2024/03/14 01:54:28;;;;;;;1999.90;999.90;;;;;;;9.67;100.00;101327.16;10571770;28;20059;-75
2024/03/14 01:59:31;;;;;;;1999.90;999.90;;;;;;;9.81;100.00;101321.31;10568943;28;20048;-74
2024/03/14 02:04:56;;;;;;;1999.90;999.90;;;;;;;9.51;100.00;101320.09;10586940;28;20070;-75
2024/03/14 02:09:59;;;;;;;1999.90;999.90;;;;;;;9.63;100.00;101314.31;10586206;28;20044;-75
2024/03/14 02:15:02;;;;;;;1999.90;999.90;;;;;;;9.45;100.00;101309.00;10570781;28;20446;-75
2024/03/14 02:20:06;;;;;;;1999.90;999.90;;;;;;;9.20;100.00;101305.78;10554644;28;20044;-75
2024/03/14 02:25:08;;;;;;;1999.90;999.90;;;;;;;9.36;100.00;101308.53;10553468;28;20491;-75
2024/03/14 02:30:11;;;;;;;1999.90;999.90;;;;;;;9.46;100.00;101296.75;10572221;28;20131;-75
2024/03/14 02:35:14;;;;;;;1999.90;999.90;;;;;;;9.40;100.00;101294.44;10582554;28;20480;-75
2024/03/14 02:40:16;;;;;;;1999.90;999.90;;;;;;;9.38;100.00;101288.41;10584070;28;20060;-75
2024/03/14 02:45:20;;;;;;;1999.90;999.90;;;;;;;9.24;100.00;101279.41;10585591;28;20043;-75
2024/03/14 02:50:22;;;;;;;1999.90;999.90;;;;;;;9.32;100.00;101279.09;10583918;28;20052;-75
2024/03/14 02:55:25;;;;;;;1999.90;999.90;;;;;;;9.20;100.00;101290.09;10583570;28;20415;-75
2024/03/14 03:00:27;;;;;;;1999.90;999.90;;;;;;;9.04;100.00;101282.91;10566713;28;20042;-75
2024/03/14 03:05:30;;;;;;;1999.90;999.90;;;;;;;8.95;100.00;101288.53;10583249;28;20043;-75
2024/03/14 03:10:33;;;;;;;1999.90;999.90;;;;;;;8.91;100.00;101273.91;10583004;28;20122;-75
2024/03/14 03:15:35;;;;;;;1999.90;999.90;;;;;;;9.03;100.00;101276.00;10582649;28;20097;-75
2024/03/14 03:20:38;;;;;;;1999.90;999.90;;;;;;;8.77;100.00;101271.03;10584078;28;20051;-75
2024/03/14 03:25:43;;;;;;;1999.90;999.90;;;;;;;8.79;100.00;101267.44;10582131;28;20104;-74
2024/03/14 03:30:45;;;;;;;1999.90;999.90;;;;;;;9.05;100.00;101263.72;10567593;28;20141;-74
2024/03/14 03:35:48;;;;;;;1999.90;999.90;;;;;;;8.99;100.00;101263.13;10581521;28;20082;-75
2024/03/14 03:40:51;;;;;;;1999.90;999.90;;;;;;;8.59;100.00;101257.84;10581328;28;20373;-74
2024/03/14 03:45:57;;;;;;;1999.90;999.90;;;;;;;8.63;100.00;101255.97;10582687;28;20484;-75
2024/03/14 03:50:59;;;;;;;1999.90;999.90;;;;;;;8.46;100.00;101256.66;10581349;28;20550;-75
2024/03/14 03:56:04;;;;;;;1999.90;999.90;;;;;;;8.69;100.00;101251.31;10582474;28;20507;-75
2024/03/14 04:01:10;;;;;;;1999.90;999.90;;;;;;;8.32;100.00;101252.81;10580822;28;20052;-74
2024/03/14 04:06:16;;;;;;;1999.90;999.90;;;;;;;8.47;100.00;101247.91;10582355;27;20051;-75
2024/03/14 04:11:19;;;;;;;1999.90;999.90;;;;;;;8.38;100.00;101241.28;10580415;28;20545;-75
2024/03/14 04:16:22;;;;;;;1999.90;999.90;;;;;;;8.27;100.00;101244.34;10566377;28;20492;-75
2024/03/14 04:21:24;;;;;;;1999.90;999.90;;;;;;;8.16;100.00;101236.91;10580544;28;20057;-75
2024/03/14 04:26:27;;;;;;;1999.90;999.90;;;;;;;8.29;100.00;101249.50;10580288;28;20063;-75
2024/03/14 04:31:31;;;;;;;1999.90;999.90;;;;;;;8.49;100.00;101239.13;10565910;28;20065;-75
2024/03/14 04:36:34;;;;;;;1999.90;999.90;;;;;;;8.46;100.00;101239.22;10579903;28;20071;-75
2024/03/14 04:41:36;;;;;;;1999.90;999.90;;;;;;;8.41;100.00;101238.53;10563317;28;20039;-74
2024/03/14 04:46:41;;;;;;;1999.90;999.90;;;;;;;8.42;100.00;101236.78;10579833;28;20130;-74
2024/03/14 04:51:44;;;;;;;1999.90;999.90;;;;;;;8.34;100.00;101234.50;10579224;28;20043;-75
2024/03/14 04:56:47;;;;;;;1999.90;999.90;;;;;;;8.36;100.00;101241.34;10579947;28;20138;-74
2024/03/14 05:01:49;;;;;;;1999.90;999.90;;;;;;;8.24;100.00;101239.25;10579316;28;20047;-75
2024/03/14 05:06:51;;;;;;;1999.90;999.90;;;;;;;8.16;100.00;101236.91;10578929;28;20439;-75
2024/03/14 05:11:54;;;;;;;1999.90;999.90;;;;;;;8.34;100.00;101234.50;10562335;28;20129;-74
2024/03/14 05:16:56;;;;;;;1999.90;999.90;;;;;;;8.52;100.00;101240.72;10579196;28;20055;-74
2024/03/14 05:21:59;;;;;;;1999.90;999.90;;;;;;;8.44;100.00;101235.84;10579574;28;20040;-75
2024/03/14 05:27:02;;;;;;;1999.90;999.90;;;;;;;8.52;100.00;101228.56;10578626;28;20048;-75
2024/03/14 05:32:20;;;;;;;1999.90;999.90;;;;;;;8.38;100.00;101228.22;10565599;28;20496;-74
2024/03/14 05:37:24;;;;;;;1999.90;999.90;;;;;;;8.26;100.00;101232.19;10562028;28;20126;-75
2024/03/14 05:42:26;;;;;;;1999.90;999.90;;;;;;;8.30;100.00;101232.91;10579934;28;20097;-74
2024/03/14 05:47:29;;;;;;;1999.90;999.90;;;;;;;8.40;100.00;101238.59;10578395;28;20059;-74
2024/03/14 05:52:32;;;;;;;1999.90;999.90;;;;;;;8.06;100.00;101232.16;10578327;28;20044;-74
2024/03/14 05:57:36;;;;;;;1999.90;999.90;;;;;;;8.43;100.00;101228.06;10551287;28;20079;-74
2024/03/14 06:02:38;;;;;;;1999.90;999.90;;;;;;;8.24;100.00;101236.63;10583201;28;20412;-75
2024/03/14 06:07:41;;;;;;;1999.90;999.90;;;;;;;8.15;100.00;101230.03;10587055;28;20130;-74
2024/03/14 06:12:45;;;;;;;1999.90;999.90;;;;;;;8.18;100.00;101216.84;10585373;28;20377;-74
2024/03/14 06:17:51;;;;;;;1999.90;999.90;;;;;;;8.14;100.00;101224.88;10586567;28;20095;-75
2024/03/14 06:22:54;;;;;;;1999.90;999.90;;;;;;;8.30;100.00;101225.91;10568709;28;20051;-75
2024/03/14 06:27:56;;;;;;;1999.90;999.90;;;;;;;8.41;100.00;101230.72;10585188;28;20109;-75
2024/03/14 06:32:59;;;;;;;1999.90;999.90;;;;;;;8.53;100.00;101225.00;10570404;28;20126;-75
2024/03/14 06:38:04;;;;;;;1999.90;999.90;;;;;;;8.58;100.00;101219.59;10585779;28;20048;-75
2024/03/14 06:43:06;;;;;;;1999.90;999.90;;;;;;;8.69;100.00;101220.00;10585904;28;20047;-75
2024/03/14 06:48:09;;;;;;;1999.90;999.90;;;;;;;8.74;100.00;101225.88;10584169;28;20401;-72
2024/03/14 06:53:12;;;;;;;1999.90;999.90;;;;;;;8.82;100.00;101217.69;10584975;28;20500;-72
2024/03/14 06:58:15;;;;;;;1999.90;999.90;;;;;;;9.16;100.00;101223.19;10566720;28;20040;-73
2024/03/14 07:03:18;;;;;;;1999.90;999.90;;;;;;;9.24;100.00;101215.88;10583945;28;20044;-72
2024/03/14 07:08:20;;;;;;;1999.90;999.90;;;;;;;9.47;100.00;101209.59;10584482;28;20054;-72
2024/03/14 07:13:23;;;;;;;1999.90;999.90;;;;;;;9.57;100.00;101216.09;10582870;28;20051;-72
2024/03/14 07:18:27;;;;;;;1999.90;999.90;;;;;;;9.89;100.00;101208.50;10582842;28;20047;-73
2024/03/14 07:23:31;;;;;;;1999.90;999.90;;;;;;;9.93;100.00;101209.19;10566001;28;20135;-72
2024/03/14 07:28:34;;;;;;;1999.90;999.90;;;;;;;10.24;100.00;101211.19;10582619;28;20050;-72
2024/03/14 07:33:36;;;;;;;1999.90;999.90;;;;;;;10.46;100.00;101204.91;10567825;28;20483;-72
2024/03/14 07:38:39;;;;;;;1999.90;999.90;;;;;;;10.39;100.00;101199.13;10582001;28;20526;-72
2024/03/14 07:43:41;;;;;;;1999.90;999.90;;;;;;;11.03;100.00;101194.97;10583541;28;20094;-73
2024/03/14 07:48:46;;;;;;;1999.90;999.90;;;;;;;11.21;100.00;101190.50;10582611;28;20075;-72
2024/03/14 07:53:49;;;;;;;1999.90;999.90;;;;;;;11.29;100.00;101195.34;10564853;28;20480;-72
2024/03/14 07:58:51;;;;;;;1999.90;999.90;;;;;;;11.73;100.00;101199.06;10581213;28;20116;-72
2024/03/14 08:03:57;;;;;;;1999.90;999.90;;;;;;;11.38;100.00;101191.38;10581876;28;20070;-72
2024/03/14 08:09:01;;;;;;;1999.90;999.90;;;;;;;12.26;100.00;101198.66;10581129;28;20054;-72
2024/03/14 08:14:06;;;;;;;1999.90;999.90;;;;;;;11.74;100.00;101182.41;10580964;28;20128;-72
2024/03/14 08:19:10;;;;;;;1999.90;999.90;;;;;;;12.42;100.00;101196.00;10581154;28;20563;-73
2024/03/14 08:24:16;;;;;;;1999.90;999.90;;;;;;;12.66;98.02;101200.75;10581209;28;20453;-72
2024/03/14 08:29:20;;;;;;;1999.90;999.90;;;;;;;13.38;94.45;101206.88;10575815;28;20100;-72
2024/03/14 08:34:22;;;;;;;1999.90;999.90;;;;;;;13.16;91.86;101207.34;10570648;28;20131;-72
2024/03/14 08:39:28;;;;;;;1999.90;999.90;;;;;;;13.82;89.62;101204.13;10533640;22;20531;-73
2024/03/14 08:44:31;;;;;;;1999.90;999.90;;;;;;;14.26;88.90;101201.22;10497117;28;20045;-72
2024/03/14 08:49:35;;;;;;;1999.90;999.90;;;;;;;14.18;84.42;101200.03;10495670;28;20505;-73
2024/03/14 08:54:44;;;;;;;1999.90;999.90;;;;;;;14.60;85.76;101193.72;10495284;28;20048;-72
2024/03/14 08:59:48;;;;;;;1999.90;999.90;;;;;;;14.23;86.10;101196.16;10495575;28;20080;-72
2024/03/14 09:04:51;;;;;;;1999.90;999.90;;;;;;;15.48;82.65;101187.59;10495684;28;20045;-73
2024/03/14 09:09:53;;;;;;;1999.90;999.90;;;;;;;14.36;84.62;101190.91;10478656;28;20083;-72
2024/03/14 09:14:56;;;;;;;1999.90;999.90;;;;;;;14.52;84.95;101187.25;10494955;28;20501;-72
2024/03/14 09:19:59;;;;;;;1999.90;999.90;;;;;;;14.72;84.84;101193.81;10476734;28;20083;-72
2024/03/14 09:25:03;;;;;;;1999.90;999.90;;;;;;;14.93;83.37;101181.81;10496563;28;20052;-72
2024/03/14 09:30:08;;;;;;;1999.90;999.90;;;;;;;15.05;81.41;101188.00;10494924;28;20102;-73
2024/03/14 09:35:12;;;;;;;1999.90;999.90;;;;;;;15.68;81.18;101175.59;10496208;28;20044;-72
2024/03/14 09:40:15;;;;;;;1999.90;999.90;;;;;;;16.07;80.89;101183.34;10502589;28;20088;-72
2024/03/14 09:45:17;;;;;;;1999.90;999.90;;;;;;;15.22;80.78;101176.28;10502179;28;20044;-73
2024/03/14 09:50:21;;;;;;;1999.90;999.90;;;;;;;14.79;80.40;101180.13;10504051;28;20472;-73
2024/03/14 09:55:24;;;;;;;1999.90;999.90;;;;;;;15.89;78.45;101178.50;10502246;28;20123;-72
2024/03/14 10:00:27;;;;;;;1999.90;999.90;;;;;;;16.65;73.16;101184.22;10501974;28;20102;-72
2024/03/14 10:05:34;;;;;;;1999.90;999.90;;;;;;;16.19;73.59;101184.22;10503164;28;20132;-72
2024/03/14 10:10:37;;;;;;;1999.90;999.90;;;;;;;15.92;78.17;101167.72;10501609;28;20050;-72
2024/03/14 10:15:39;;;;;;;1999.90;999.90;;;;;;;19.01;69.31;101165.03;10501374;28;20049;-72
2024/03/14 10:20:43;;;;;;;1999.90;999.90;;;;;;;19.19;70.07;101162.59;10502557;28;20052;-72
2024/03/14 10:25:53;;;;;;;1999.90;999.90;;;;;;;18.81;68.02;101153.50;10485069;28;20076;-72
2024/03/14 10:30:57;;;;;;;1999.90;999.90;;;;;;;18.10;69.77;101148.06;10500701;28;20076;-73
2024/03/14 10:36:01;;;;;;;1999.90;999.90;;;;;;;17.39;69.26;101146.72;10501183;28;20052;-73
2024/03/14 10:41:05;;;;;;;1999.90;999.90;;;;;;;19.03;66.17;101136.56;10501343;28;20471;-73
2024/03/14 10:46:19;;;;;;;1999.90;999.90;;;;;;;20.90;64.15;101143.50;10499976;28;20405;-74
2024/03/14 10:51:22;;;;;;;1999.90;999.90;;;;;;;22.50;60.19;101130.34;10500171;28;20044;-74
2024/03/14 10:56:26;;;;;;;1999.90;999.90;;;;;;;21.14;60.03;101133.13;10485885;28;20440;-74
2024/03/14 11:01:29;;;;;;;1999.90;999.90;;;;;;;21.82;57.20;101128.31;10482973;28;20044;-74
2024/03/14 11:06:35;;;;;;;1999.90;999.90;;;;;;;22.42;58.30;101122.28;10499397;28;20109;-74
2024/03/14 11:11:39;;;;;;;1999.90;999.90;;;;;;;22.33;54.38;101123.25;10499314;28;20051;-74
2024/03/14 11:16:46;;;;;;;1999.90;999.90;;;;;;;22.04;57.76;101103.00;10499127;28;20056;-74
2024/03/14 11:21:50;;;;;;;1999.90;999.90;;;;;;;24.19;53.00;101100.84;10482391;28;20128;-74
2024/03/14 11:26:53;;;;;;;1999.90;999.90;;;;;;;24.03;51.37;101087.50;10498431;28;20048;-74
2024/03/14 11:32:20;;;;;;;1999.90;999.90;;;;;;;23.89;54.17;101092.53;10498244;28;20052;-74
2024/03/14 11:37:23;;;;;;;1999.90;999.90;;;;;;;22.39;51.57;101087.94;10485801;28;20084;-74
2024/03/14 11:42:25;;;;;;;1999.90;999.90;;;;;;;23.63;53.94;101083.81;10470653;28;20491;-73
2024/03/14 11:47:41;;;;;;;1999.90;999.90;;;;;;;24.43;49.58;101069.69;10497918;28;20417;-73
2024/03/14 11:52:45;;;;;;;1999.90;999.90;;;;;;;25.56;47.72;101055.03;10497089;28;20048;-74
2024/03/14 11:57:48;;;;;;;1999.90;999.90;;;;;;;24.75;52.21;101071.44;10480450;28;20211;-73
2024/03/14 12:02:52;;;;;;;1999.90;999.90;;;;;;;23.85;49.62;101064.44;10498203;28;20124;-73
2024/03/14 12:07:55;;;;;;;1999.90;999.90;;;;;;;23.90;49.87;101055.91;10496752;28;20412;-73
2024/03/14 12:13:01;;;;;;;1999.90;999.90;;;;;;;24.95;45.43;101054.91;10497743;28;20044;-74
2024/03/14 12:18:04;;;;;;;1999.90;999.90;;;;;;;22.60;50.82;101050.19;10497485;28;20052;-73
2024/03/14 12:23:11;;;;;;;1999.90;999.90;;;;;;;23.93;48.92;101035.03;10497669;28;20572;-74
2024/03/14 12:28:14;;;;;;;1999.90;999.90;;;;;;;24.80;48.80;101030.75;10496497;28;20051;-73
2024/03/14 12:33:17;;;;;;;1999.90;999.90;;;;;;;25.19;47.80;101022.59;10496145;28;20444;-73
2024/03/14 12:38:22;;;;;;;1999.90;999.90;;;;;;;23.77;47.68;101013.66;10495989;28;20570;-72
2024/03/14 12:43:30;;;;;;;1999.90;999.90;;;;;;;26.12;46.18;100999.16;10496323;28;20576;-65
2024/03/14 12:48:34;;;;;;;1999.90;999.90;;;;;;;26.61;42.63;100981.63;10494448;28;20083;-73
2024/03/14 12:53:36;;;;;;;1999.90;999.90;;;;;;;26.38;43.07;100981.75;10496480;28;20040;-73
2024/03/14 12:58:39;;;;;;;1999.90;999.90;;;;;;;25.34;46.76;100958.38;10471530;28;20051;-73
2024/03/14 13:03:43;;;;;;;1999.90;999.90;;;;;;;25.61;45.16;100952.63;10495157;28;20045;-73
2024/03/14 13:08:46;;;;;;;1999.90;999.90;;;;;;;25.04;45.23;100950.22;10497292;28;20451;-73
2024/03/14 13:13:49;;;;;;;1999.90;999.90;;;;;;;24.90;45.25;100945.66;10492836;28;20052;-73
2024/03/14 13:18:53;;;;;;;1999.90;999.90;;;;;;;24.27;47.86;100951.00;10505012;28;20053;-73
2024/03/14 13:23:55;;;;;;;1999.90;999.90;;;;;;;27.22;43.28;100934.69;10503586;28;20041;-73
2024/03/14 13:28:58;;;;;;;1999.90;999.90;;;;;;;24.45;46.48;100933.88;10503068;28;20103;-72
2024/03/14 13:34:00;;;;;;;1999.90;999.90;;;;;;;25.51;45.67;100913.50;10502867;28;20044;-72
2024/03/14 13:39:07;;;;;;;1999.90;999.90;;;;;;;25.20;47.81;100914.44;10502378;28;20215;-73
2024/03/14 13:44:10;;;;;;;1999.90;999.90;;;;;;;25.91;44.74;100908.69;10486129;28;20561;-72
2024/03/14 13:49:14;;;;;;;1999.90;999.90;;;;;;;24.27;45.66;100905.53;10485069;28;20057;-73
2024/03/14 13:54:23;;;;;;;1999.90;999.90;;;;;;;24.03;47.22;100905.66;10502259;28;20134;-72
2024/03/14 13:59:27;;;;;;;;;;;;;;;25.10;46.12;100895.13;10502557;28;20152;-72
2024/03/14 14:04:30;;;;;;;1999.90;999.90;;;;;;;23.47;46.80;100894.94;10501699;28;19920;-73
2024/03/14 14:09:33;;;;;;;1999.90;999.90;;;;;;;23.29;48.46;100890.63;10501321;28;20452;-72
2024/03/14 14:14:38;;;;;;;1999.90;999.90;;;;;;;21.29;49.68;100899.13;10501472;28;20045;-73
2024/03/14 14:19:41;;;;;;;1999.90;999.90;;;;;;;22.94;48.71;100892.63;10501330;28;20084;-73
2024/03/14 14:24:44;;;;;;;1999.90;999.90;;;;;;;23.22;47.87;100889.66;10501756;28;20056;-73
2024/03/14 14:29:46;;;;;;;1999.90;999.90;;;;;;;22.43;46.80;100870.56;10500815;28;20056;-73
2024/03/14 14:34:49;;;;;;;1999.90;999.90;;;;;;;23.59;47.21;100864.19;10500500;28;20052;-74
2024/03/14 14:39:51;;;;;;;1999.90;999.90;;;;;;;25.48;46.03;100856.75;10500321;28;20060;-74
2024/03/14 14:44:53;;;;;;;1999.90;999.90;;;;;;;23.51;48.24;100851.66;10483708;28;20086;-73
2024/03/14 14:49:56;;;;;;;1999.90;999.90;;;;;;;23.66;45.51;100846.44;10501218;28;20383;-74
2024/03/14 14:55:04;;;;;;;1999.90;999.90;;;;;;;24.94;44.39;100845.19;10499736;28;20413;-74
2024/03/14 15:00:08;;;;;;;1999.90;999.90;;;;;;;24.92;44.38;100828.47;10499662;28;20055;-74
2024/03/14 15:05:11;;;;;;;1999.90;999.90;;;;;;;25.37;44.11;100823.22;10500733;28;20044;-75
2024/03/14 15:10:15;;;;;;;1999.90;999.90;;;;;;;23.33;45.98;100821.66;10482809;28;20044;-74
2024/03/14 15:15:21;;;;;;;1999.90;999.90;;;;;;;23.63;44.28;100804.03;10482786;28;20076;-66
2024/03/14 15:20:25;;;;;;;1999.90;999.90;;;;;;;23.03;45.49;100796.50;10498794;28;20102;-66
2024/03/14 15:25:28;;;;;;;1999.90;999.90;;;;;;;23.27;44.98;100809.84;10499766;28;20048;-66
2024/03/14 15:30:31;;;;;;;1999.90;999.90;;;;;;;22.85;44.63;100802.88;10498774;28;20505;-74
2024/03/14 15:35:36;;;;;;;1999.90;999.90;;;;;;;22.74;46.92;100792.53;10481082;28;20506;-75
2024/03/14 15:40:38;;;;;;;1999.90;999.90;;;;;;;22.66;48.96;100793.34;10498113;28;20067;-74
2024/03/14 15:45:40;;;;;;;1999.90;999.90;;;;;;;21.29;49.20;100792.63;10497416;28;20080;-74
2024/03/14 15:50:44;;;;;;;1999.90;999.90;;;;;;;20.77;50.56;100798.78;10497325;28;20126;-74
2024/03/14 15:55:46;;;;;;;1999.90;999.90;;;;;;;21.23;51.79;100787.97;10497440;28;20048;-74
2024/03/14 16:00:49;;;;;;;1999.90;999.90;;;;;;;19.62;51.84;100788.78;10497090;28;20472;-74
2024/03/14 16:05:54;;;;;;;1999.90;999.90;;;;;;;20.00;53.51;100785.06;10497189;28;20044;-74
2024/03/14 16:10:56;;;;;;;1999.90;999.90;;;;;;;20.54;52.15;100777.13;10481081;28;20055;-74
2024/03/14 16:15:59;;;;;;;1999.90;999.90;;;;;;;20.81;51.57;100770.03;10497869;28;20059;-74
2024/03/14 16:21:02;;;;;;;1999.90;999.90;;;;;;;19.55;55.39;100771.75;10479912;28;20074;-74
2024/03/14 16:26:10;;;;;;;1999.90;999.90;;;;;;;19.06;58.06;100775.44;10496505;28;20076;-74
2024/03/14 16:31:17;;;;;;;1999.90;999.90;;;;;;;18.67;58.67;100770.16;10479733;28;20488;-74
2024/03/14 16:36:20;;;;;;;1999.90;999.90;;;;;;;18.40;60.21;100770.88;10479619;28;20041;-74
2024/03/14 16:41:23;;;;;;;1999.90;999.90;;;;;;;18.10;61.42;100767.38;10496325;28;20443;-74
2024/03/14 16:46:27;;;;;;;1999.90;999.90;;;;;;;17.81;64.02;100765.47;10479305;28;20044;-74
2024/03/14 16:51:29;;;;;;;1999.90;999.90;;;;;;;17.33;65.92;100752.94;10495385;28;20456;-74
2024/03/14 16:56:34;;;;;;;1999.90;999.90;;;;;;;17.10;66.31;100757.56;10496689;28;20098;-74
2024/03/14 17:01:36;;;;;;;1999.90;999.90;;;;;;;17.06;67.08;100753.50;10495493;28;20512;-74
2024/03/14 17:06:39;;;;;;;1999.90;999.90;;;;;;;16.66;70.03;100744.47;10495668;28;20055;-73
2024/03/14 17:11:41;;;;;;;1999.90;999.90;;;;;;;16.35;70.81;100754.09;10495287;28;20076;-73
2024/03/14 17:16:45;;;;;;;1999.90;999.90;;;;;;;15.81;73.00;100752.34;10478951;28;20090;-74
2024/03/14 17:21:56;;;;;;;1999.90;999.90;;;;;;;15.59;75.78;100746.94;10496557;28;20047;-73
2024/03/14 17:27:00;;;;;;;1999.90;999.90;;;;;;;15.43;77.37;100749.09;10495097;28;20048;-73
2024/03/14 17:32:03;;;;;;;1999.90;999.90;;;;;;;15.50;76.69;100750.31;10494693;28;20048;-73
2024/03/14 17:37:05;;;;;;;1999.90;999.90;;;;;;;15.10;78.25;100745.53;10494894;28;20052;-73
2024/03/14 17:42:08;;;;;;;1999.90;999.90;;;;;;;14.95;79.67;100758.09;10494825;28;20055;-73
2024/03/14 17:47:10;;;;;;;1999.90;999.90;;;;;;;15.23;78.98;100759.44;10495350;28;20060;-73
2024/03/14 17:52:12;;;;;;;1999.90;999.90;;;;;;;14.78;80.38;100762.00;10494297;28;20045;-73
2024/03/14 17:57:15;;;;;;;1999.90;999.90;;;;;;;14.73;81.29;100760.69;10497213;28;20451;-73
2024/03/14 18:02:17;;;;;;;1999.90;999.90;;;;;;;14.42;83.26;100757.66;10485340;28;20050;-73
2024/03/14 18:07:20;;;;;;;1999.90;999.90;;;;;;;14.56;83.04;100757.47;10503264;28;20127;-73
2024/03/14 18:12:22;;;;;;;1999.90;999.90;;;;;;;14.42;82.64;100750.59;10502236;28;20123;-73
2024/03/14 18:17:24;;;;;;;1999.90;999.90;;;;;;;14.07;85.12;100748.78;10501392;28;20048;-73
2024/03/14 18:22:31;;;;;;;1999.90;999.90;;;;;;;14.10;84.53;100750.34;10502258;28;20110;-73
2024/03/14 18:27:34;;;;;;;1999.90;999.90;;;;;;;14.19;83.83;100751.44;10501197;28;20051;-73
2024/03/14 18:32:36;;;;;;;1999.90;999.90;;;;;;;14.06;85.02;100744.47;10500748;28;20041;-73
2024/03/14 18:37:38;;;;;;;1999.90;999.90;;;;;;;13.86;86.29;100750.31;10500921;28;20101;-73
2024/03/14 18:42:41;;;;;;;1999.90;999.90;;;;;;;13.83;85.75;100740.84;10483547;28;20546;-72
2024/03/14 18:47:43;;;;;;;1999.90;999.90;;;;;;;13.96;85.78;100746.06;10501541;28;20101;-72
2024/03/14 18:52:46;;;;;;;1999.90;999.90;;;;;;;13.74;86.45;100749.41;10500018;28;20049;-72
2024/03/14 18:57:49;;;;;;;1999.90;999.90;;;;;;;13.53;88.58;100742.09;10499595;28;20049;-72
2024/03/14 19:02:52;;;;;;;1999.90;999.90;;;;;;;13.42;90.12;100749.06;10500650;28;20055;-72
2024/03/14 19:08:01;;;;;;;1999.90;999.90;;;;;;;13.30;90.22;100732.34;10499378;28;20048;-73
2024/03/14 19:13:08;;;;;;;1999.90;999.90;;;;;;;13.22;90.75;100732.84;10499228;28;20044;-72
2024/03/14 19:18:12;;;;;;;1999.90;999.90;;;;;;;12.90;93.33;100730.66;10498997;28;20080;-72
2024/03/14 19:23:16;;;;;;;1999.90;999.90;;;;;;;12.75;94.49;100731.69;10498882;28;20044;-72
2024/03/14 19:28:18;;;;;;;1999.90;999.90;;;;;;;12.94;93.76;100737.38;10499530;28;20131;-72
2024/03/14 19:33:20;;;;;;;1999.90;999.90;;;;;;;12.92;95.63;100725.31;10499352;28;20044;-72
2024/03/14 19:38:23;;;;;;;1999.90;999.90;;;;;;;12.96;93.76;100711.00;10498074;28;20052;-72
2024/03/14 19:43:26;;;;;;;1999.90;999.90;;;;;;;13.15;92.99;100705.31;10481265;28;20098;-72
2024/03/14 19:48:28;;;;;;;1999.90;999.90;;;;;;;13.18;92.28;100703.31;10480996;28;20048;-72
2024/03/14 19:53:31;;;;;;;1999.90;999.90;;;;;;;13.10;94.30;100703.00;10480811;28;20123;-72
2024/03/14 19:58:34;;;;;;;1999.90;999.90;;;;;;;13.11;93.81;100701.22;10497632;28;20076;-72
2024/03/14 20:03:36;;;;;;;1999.90;999.90;;;;;;;12.98;95.31;100685.47;10497357;28;20055;-72
2024/03/14 20:08:40;;;;;;;1999.90;999.90;;;;;;;13.15;94.39;100689.56;10497862;28;20056;-72
2024/03/14 20:13:43;;;;;;;1999.90;999.90;;;;;;;13.33;91.43;100690.91;10496722;28;20129;-72
2024/03/14 20:18:45;;;;;;;1999.90;999.90;;;;;;;13.16;93.97;100686.81;10495872;28;20084;-72
2024/03/14 20:23:49;;;;;;;1999.90;999.90;;;;;;;13.39;92.17;100689.63;10480086;28;20078;-72
2024/03/14 20:28:51;;;;;;;1999.90;999.90;;;;;;;13.27;91.53;100693.09;10496238;28;20100;-72
2024/03/14 20:33:56;;;;;;;1999.90;999.90;;;;;;;13.45;89.56;100696.22;10479648;28;20539;-72
2024/03/14 20:39:00;;;;;;;1999.90;999.90;;;;;;;13.07;91.63;100692.69;10496065;28;20056;-72
2024/03/14 20:44:08;;;;;;;1999.90;999.90;;;;;;;13.29;91.74;100691.19;10497570;28;20056;-72
2024/03/14 20:49:12;;;;;;;1999.90;999.90;;;;;;;13.12;92.64;100687.13;10495986;28;20060;-72
2024/03/14 20:54:15;;;;;;;1999.90;999.90;;;;;;;12.98;95.45;100690.72;10454322;22;20107;-71
2024/03/14 20:59:18;;;;;;;1999.90;999.90;;;;;;;13.17;92.98;100682.38;10396912;28;20060;-71
2024/03/14 21:04:21;;;;;;;1999.90;999.90;;;;;;;13.01;93.68;100677.34;10396274;28;20050;-71
2024/03/14 21:09:31;;;;;;;1999.90;999.90;;;;;;;13.46;88.22;100679.53;10396486;28;20084;-72
2024/03/14 21:14:35;;;;;;;1999.90;999.90;;;;;;;13.33;86.17;100674.28;10397260;28;20041;-71
2024/03/14 21:19:40;;;;;;;1999.90;999.90;;;;;;;13.12;89.81;100679.25;10413981;28;20128;-71
2024/03/14 21:24:43;;;;;;;1999.90;999.90;;;;;;;13.34;87.44;100673.34;10379983;28;20124;-71
2024/03/14 21:29:45;;;;;;;1999.90;999.90;;;;;;;13.32;86.96;100672.63;10396519;28;20498;-71
2024/03/14 21:34:48;;;;;;;1999.90;999.90;;;;;;;13.23;88.17;100678.47;10404187;28;20045;-71
2024/03/14 21:39:51;;;;;;;1999.90;999.90;;;;;;;13.19;86.40;100683.13;10421060;28;20498;-71
2024/03/14 21:44:53;;;;;;;1999.90;999.90;;;;;;;12.94;87.37;100673.47;10403796;28;20124;-72
2024/03/14 21:49:56;;;;;;;1999.90;999.90;;;;;;;13.23;86.07;100676.72;10403598;28;20081;-72
2024/03/14 21:55:00;;;;;;;1999.90;999.90;;;;;;;13.23;85.97;100673.22;10402956;28;20091;-72
2024/03/14 22:00:03;;;;;;;1999.90;999.90;;;;;;;13.03;86.94;100686.00;10403127;28;20141;-72